createdAt,value
2018-04-27T00:00:19.410Z,38.43
2018-04-27T00:01:19.885Z,38.41
2018-04-27T00:02:20.358Z,38.36
2018-04-27T00:03:20.831Z,38.32
2018-04-27T00:04:21.305Z,38.31
2018-04-27T00:05:21.779Z,38.29
2018-04-27T00:06:22.252Z,38.27
2018-04-27T00:07:22.726Z,38.26
2018-04-27T00:08:23.199Z,38.20
2018-04-27T00:09:23.672Z,38.15
2018-04-27T00:10:24.150Z,38.09
2018-04-27T00:11:24.622Z,38.04
2018-04-27T00:12:25.093Z,38.04
2018-04-27T00:13:25.567Z,38.02
2018-04-27T00:14:26.042Z,38.00
2018-04-27T00:15:26.515Z,37.98
2018-04-27T00:16:26.988Z,37.96
2018-04-27T00:17:27.463Z,37.91
2018-04-27T00:18:27.936Z,37.89
2018-04-27T00:19:28.410Z,37.88
2018-04-27T00:20:28.883Z,37.88
2018-04-27T00:21:29.356Z,37.85
2018-04-27T00:22:29.831Z,37.85
2018-04-27T00:23:30.305Z,37.86
2018-04-27T00:24:30.980Z,37.81
2018-04-27T00:25:31.253Z,37.79
2018-04-27T00:26:31.725Z,37.80
2018-04-27T00:27:32.200Z,37.82
2018-04-27T00:28:32.671Z,37.83
2018-04-27T00:29:33.147Z,37.84
2018-04-27T00:30:33.619Z,37.88
2018-04-27T00:31:34.096Z,37.86
2018-04-27T00:32:34.566Z,37.85
2018-04-27T00:33:35.040Z,37.88
2018-04-27T00:34:35.516Z,37.83
2018-04-27T00:35:35.988Z,37.83
2018-04-27T00:36:36.466Z,37.83
2018-04-27T00:37:36.936Z,37.80
2018-04-27T00:38:37.409Z,37.79
2018-04-27T00:39:38.037Z,37.76
2018-04-27T00:40:38.358Z,37.75
2018-04-27T00:41:38.832Z,37.72
2018-04-27T00:42:39.306Z,37.73
2018-04-27T00:43:39.780Z,37.70
2018-04-27T00:44:40.304Z,37.71
2018-04-27T00:45:40.729Z,37.71
2018-04-27T00:46:41.202Z,37.73
2018-04-27T00:47:41.675Z,37.78
2018-04-27T00:48:42.158Z,37.80
2018-04-27T00:49:42.622Z,37.85
2018-04-27T00:50:43.096Z,37.85
2018-04-27T00:51:43.575Z,37.86
2018-04-27T00:52:44.045Z,37.84
2018-04-27T00:53:44.519Z,37.81
2018-04-27T00:54:44.994Z,37.87
2018-04-27T00:55:45.466Z,37.88
2018-04-27T00:56:45.940Z,37.92
2018-04-27T00:57:46.414Z,37.96
2018-04-27T00:58:46.888Z,38.00
2018-04-27T00:59:47.413Z,38.02
2018-04-27T01:00:47.851Z,38.05
2018-04-27T01:01:48.312Z,38.08
2018-04-27T01:02:48.790Z,38.11
2018-04-27T01:03:49.258Z,38.06
2018-04-27T01:04:49.782Z,38.05
2018-04-27T01:05:50.206Z,38.06
2018-04-27T01:06:50.680Z,38.06
2018-04-27T01:07:51.154Z,38.03
2018-04-27T01:08:51.628Z,37.99
2018-04-27T01:09:52.101Z,37.98
2018-04-27T01:10:52.916Z,38.00
2018-04-27T01:11:53.053Z,37.99
2018-04-27T01:12:53.524Z,37.94
2018-04-27T01:13:53.997Z,37.92
2018-04-27T01:14:54.472Z,37.96
2018-04-27T01:15:54.946Z,37.99
2018-04-27T01:16:55.418Z,38.00
2018-04-27T01:17:55.893Z,37.99
2018-04-27T01:18:56.369Z,37.99
2018-04-27T01:19:56.892Z,37.98
2018-04-27T01:20:57.317Z,37.98
2018-04-27T01:21:57.790Z,37.97
2018-04-27T01:22:58.265Z,37.96
2018-04-27T01:23:58.737Z,37.95
2018-04-27T01:24:59.214Z,37.98
2018-04-27T01:25:59.685Z,37.93
2018-04-27T01:27:00.159Z,37.93
2018-04-27T01:28:00.634Z,37.93
2018-04-27T01:29:01.107Z,37.92
2018-04-27T01:30:01.580Z,37.93
2018-04-27T01:31:02.054Z,37.90
2018-04-27T01:32:02.530Z,37.86
2018-04-27T01:33:03.002Z,37.89
2018-04-27T01:34:03.476Z,37.91
2018-04-27T01:35:03.953Z,37.93
2018-04-27T01:36:04.426Z,37.93
2018-04-27T01:37:04.898Z,37.95
2018-04-27T01:38:05.372Z,37.94
2018-04-27T01:39:05.847Z,37.95
2018-04-27T01:40:06.372Z,37.91
2018-04-27T01:42:07.268Z,37.92
2018-04-27T01:43:07.742Z,37.93
2018-04-27T01:44:08.269Z,37.94
2018-04-27T01:45:08.690Z,37.96
2018-04-27T01:46:09.165Z,37.93
2018-04-27T01:47:09.638Z,37.92
2018-04-27T01:48:10.114Z,37.93
2018-04-27T01:49:10.587Z,37.93
2018-04-27T01:50:11.112Z,37.94
2018-04-27T01:51:11.538Z,37.96
2018-04-27T01:52:12.009Z,37.96
2018-04-27T01:53:12.482Z,37.96
2018-04-27T01:54:12.960Z,37.96
2018-04-27T01:55:13.430Z,37.99
2018-04-27T01:56:13.908Z,38.04
2018-04-27T01:57:14.377Z,38.05
2018-04-27T01:58:14.850Z,38.05
2018-04-27T01:59:15.326Z,38.03
2018-04-27T02:00:15.950Z,38.05
2018-04-27T02:01:16.273Z,38.03
2018-04-27T02:02:16.750Z,37.99
2018-04-27T02:03:17.221Z,38.00
2018-04-27T02:04:17.696Z,38.01
2018-04-27T02:05:18.420Z,38.01
2018-04-27T02:06:18.641Z,38.03
2018-04-27T02:07:19.117Z,38.04
2018-04-27T02:08:19.591Z,38.06
2018-04-27T02:09:20.067Z,38.04
2018-04-27T02:10:20.539Z,38.04
2018-04-27T02:11:21.011Z,38.03
2018-04-27T02:12:21.488Z,38.04
2018-04-27T02:13:21.960Z,38.03
2018-04-27T02:14:22.433Z,38.05
2018-04-27T02:15:22.908Z,38.05
2018-04-27T02:16:23.385Z,37.99
2018-04-27T02:17:23.855Z,37.99
2018-04-27T02:18:24.328Z,38.00
2018-04-27T02:19:24.805Z,38.02
2018-04-27T02:20:25.278Z,38.07
2018-04-27T02:21:25.752Z,38.09
2018-04-27T02:22:26.225Z,38.09
2018-04-27T02:23:26.698Z,38.05
2018-04-27T02:24:27.173Z,38.04
2018-04-27T02:25:27.644Z,38.06
2018-04-27T02:26:28.123Z,38.08
2018-04-27T02:27:28.595Z,38.08
2018-04-27T02:28:29.069Z,38.09
2018-04-27T02:29:29.542Z,38.12
2018-04-27T02:30:30.066Z,38.13
2018-04-27T02:31:30.489Z,38.11
2018-04-27T02:32:30.966Z,38.13
2018-04-27T02:33:31.436Z,38.10
2018-04-27T02:34:31.913Z,38.12
2018-04-27T02:35:32.385Z,38.11
2018-04-27T02:36:32.858Z,38.07
2018-04-27T02:37:33.338Z,38.08
2018-04-27T02:38:33.805Z,38.09
2018-04-27T02:39:34.281Z,38.10
2018-04-27T02:40:34.753Z,38.12
2018-04-27T02:41:35.225Z,38.14
2018-04-27T02:42:35.702Z,38.14
2018-04-27T02:43:36.173Z,38.12
2018-04-27T02:44:36.648Z,38.12
2018-04-27T02:45:37.121Z,38.13
2018-04-27T02:46:37.594Z,38.15
2018-04-27T02:47:38.070Z,38.16
2018-04-27T02:48:38.543Z,38.17
2018-04-27T02:49:39.016Z,38.16
2018-04-27T02:50:39.542Z,38.13
2018-04-27T02:51:39.965Z,38.15
2018-04-27T02:52:40.438Z,38.13
2018-04-27T02:53:40.911Z,38.13
2018-04-27T02:54:41.386Z,38.14
2018-04-27T02:55:41.862Z,38.14
2018-04-27T02:56:42.336Z,38.13
2018-04-27T02:57:42.812Z,38.15
2018-04-27T02:58:43.284Z,38.15
2018-04-27T02:59:43.768Z,38.17
2018-04-27T03:00:44.240Z,38.17
2018-04-27T03:01:44.704Z,38.23
2018-04-27T03:02:45.180Z,38.23
2018-04-27T03:03:45.652Z,38.22
2018-04-27T03:04:46.125Z,38.21
2018-04-27T03:05:46.751Z,38.20
2018-04-27T03:06:47.073Z,38.26
2018-04-27T03:07:47.545Z,38.26
2018-04-27T03:08:48.021Z,38.30
2018-04-27T03:09:48.495Z,38.35
2018-04-27T03:10:49.021Z,38.35
2018-04-27T03:11:49.440Z,38.34
2018-04-27T03:12:49.914Z,38.38
2018-04-27T03:13:50.388Z,38.43
2018-04-27T03:14:50.863Z,38.42
2018-04-27T03:15:51.336Z,38.49
2018-04-27T03:16:51.809Z,38.49
2018-04-27T03:17:52.282Z,38.53
2018-04-27T03:18:52.759Z,38.56
2018-04-27T03:19:53.230Z,38.55
2018-04-27T03:20:53.703Z,38.53
2018-04-27T03:21:54.175Z,38.53
2018-04-27T03:22:54.652Z,38.56
2018-04-27T03:23:55.226Z,38.56
2018-04-27T03:24:55.599Z,38.58
2018-04-27T03:25:56.073Z,38.59
2018-04-27T03:26:56.545Z,38.63
2018-04-27T03:27:57.019Z,38.61
2018-04-27T03:28:57.496Z,38.63
2018-04-27T03:29:57.967Z,38.67
2018-04-27T03:30:58.441Z,38.69
2018-04-27T03:31:58.914Z,38.66
2018-04-27T03:32:59.390Z,38.70
2018-04-27T03:33:59.863Z,38.72
2018-04-27T03:35:00.336Z,38.75
2018-04-27T03:36:00.810Z,38.79
2018-04-27T03:37:01.284Z,38.83
2018-04-27T03:38:01.757Z,38.85
2018-04-27T03:39:02.230Z,38.87
2018-04-27T03:40:02.703Z,38.88
2018-04-27T03:41:03.177Z,38.91
2018-04-27T03:42:03.650Z,38.92
2018-04-27T03:43:04.124Z,38.89
2018-04-27T03:44:04.598Z,38.95
2018-04-27T03:45:05.071Z,38.98
2018-04-27T03:46:05.700Z,39.00
2018-04-27T03:47:06.018Z,39.00
2018-04-27T03:48:06.491Z,39.00
2018-04-27T03:49:06.967Z,39.09
2018-04-27T03:50:07.439Z,39.13
2018-04-27T03:51:07.913Z,39.15
2018-04-27T03:52:08.386Z,39.17
2018-04-27T03:53:08.862Z,39.20
2018-04-27T03:54:09.340Z,39.21
2018-04-27T03:55:09.807Z,39.25
2018-04-27T03:56:10.432Z,39.27
2018-04-27T03:57:10.754Z,39.31
2018-04-27T03:58:11.227Z,39.34
2018-04-27T03:59:11.699Z,39.32
2018-04-27T04:00:12.175Z,39.32
2018-04-27T04:01:12.670Z,39.35
2018-04-27T04:02:13.121Z,39.37
2018-04-27T04:03:13.595Z,39.39
2018-04-27T04:04:14.070Z,39.42
2018-04-27T04:05:14.545Z,39.43
2018-04-27T04:06:15.015Z,39.45
2018-04-27T04:07:15.489Z,39.46
2018-04-27T04:08:15.962Z,39.47
2018-04-27T04:09:16.436Z,39.47
2018-04-27T04:10:16.913Z,39.46
2018-04-27T04:11:17.382Z,39.47
2018-04-27T04:12:17.857Z,39.50
2018-04-27T04:13:18.329Z,39.51
2018-04-27T04:14:18.802Z,39.52
2018-04-27T04:15:19.277Z,39.51
2018-04-27T04:16:19.750Z,39.53
2018-04-27T04:17:20.223Z,39.50
2018-04-27T04:18:20.694Z,39.46
2018-04-27T04:19:21.170Z,39.44
2018-04-27T04:20:21.643Z,39.47
2018-04-27T04:21:22.167Z,39.47
2018-04-27T04:22:22.590Z,39.49
2018-04-27T04:23:23.064Z,39.46
2018-04-27T04:24:23.540Z,39.46
2018-04-27T04:25:24.012Z,39.53
2018-04-27T04:26:24.535Z,39.56
2018-04-27T04:27:24.958Z,39.55
2018-04-27T04:28:25.437Z,39.56
2018-04-27T04:29:25.906Z,39.55
2018-04-27T04:30:26.379Z,39.58
2018-04-27T04:31:26.852Z,39.59
2018-04-27T04:32:27.388Z,39.59
2018-04-27T04:33:27.798Z,39.58
2018-04-27T04:34:28.271Z,39.57
2018-04-27T04:35:28.744Z,39.57
2018-04-27T04:36:29.221Z,39.56
2018-04-27T04:37:29.693Z,39.55
2018-04-27T04:38:30.166Z,39.55
2018-04-27T04:39:30.640Z,39.56
2018-04-27T04:40:31.113Z,39.56
2018-04-27T04:41:31.592Z,39.57
2018-04-27T04:42:32.061Z,39.53
2018-04-27T04:43:32.534Z,39.57
2018-04-27T04:44:33.010Z,39.58
2018-04-27T04:45:33.482Z,39.57
2018-04-27T04:46:33.960Z,39.57
2018-04-27T04:47:34.433Z,39.57
2018-04-27T04:48:34.902Z,39.58
2018-04-27T04:49:35.378Z,39.56
2018-04-27T04:50:35.850Z,39.56
2018-04-27T04:51:36.474Z,39.55
2018-04-27T04:52:36.808Z,39.54
2018-04-27T04:53:37.273Z,39.55
2018-04-27T04:54:37.745Z,39.56
2018-04-27T04:55:38.218Z,39.57
2018-04-27T04:56:38.743Z,39.58
2018-04-27T04:57:39.167Z,39.56
2018-04-27T04:58:39.640Z,39.58
2018-04-27T04:59:40.115Z,39.57
2018-04-27T05:00:40.588Z,39.55
2018-04-27T05:01:41.062Z,39.56
2018-04-27T05:02:41.599Z,39.56
2018-04-27T05:03:42.011Z,39.57
2018-04-27T05:04:42.484Z,39.56
2018-04-27T05:05:42.959Z,39.55
2018-04-27T05:06:43.433Z,39.53
2018-04-27T05:07:43.909Z,39.52
2018-04-27T05:08:44.381Z,39.50
2018-04-27T05:09:44.855Z,39.51
2018-04-27T05:10:45.374Z,39.50
2018-04-27T05:11:45.804Z,39.49
2018-04-27T05:12:46.279Z,39.44
2018-04-27T05:13:46.754Z,39.41
2018-04-27T05:14:47.227Z,39.36
2018-04-27T05:15:47.701Z,39.36
2018-04-27T05:16:48.227Z,39.36
2018-04-27T05:17:48.653Z,39.37
2018-04-27T05:18:49.127Z,39.39
2018-04-27T05:19:49.600Z,39.47
2018-04-27T05:20:50.072Z,39.57
2018-04-27T05:21:50.550Z,39.71
2018-04-27T05:22:51.024Z,39.85
2018-04-27T05:23:51.502Z,40.09
2018-04-27T05:24:51.970Z,40.29
2018-04-27T05:25:52.444Z,40.47
2018-04-27T05:26:52.970Z,40.70
2018-04-27T05:27:53.393Z,40.94
2018-04-27T05:28:53.870Z,41.21
2018-04-27T05:29:54.337Z,41.46
2018-04-27T05:30:54.810Z,41.69
2018-04-27T05:31:55.434Z,41.93
2018-04-27T05:32:55.755Z,42.20
2018-04-27T05:33:56.228Z,42.49
2018-04-27T05:34:56.698Z,42.78
2018-04-27T05:35:57.170Z,43.00
2018-04-27T05:36:57.642Z,43.24
2018-04-27T05:37:58.114Z,43.46
2018-04-27T05:38:58.584Z,43.62
2018-04-27T05:39:59.058Z,43.79
2018-04-27T05:40:59.528Z,43.92
2018-04-27T05:42:00.199Z,44.02
2018-04-27T05:43:00.468Z,44.11
2018-04-27T05:44:00.939Z,44.10
2018-04-27T05:45:01.410Z,44.12
2018-04-27T05:46:01.881Z,44.12
2018-04-27T05:47:02.352Z,44.07
2018-04-27T05:48:02.823Z,44.02
2018-04-27T05:49:03.374Z,43.94
2018-04-27T05:50:03.768Z,43.84
2018-04-27T05:51:04.237Z,43.75
2018-04-27T05:52:04.706Z,43.65
2018-04-27T05:53:05.178Z,43.55
2018-04-27T05:54:05.649Z,43.46
2018-04-27T05:55:06.120Z,43.39
2018-04-27T05:56:06.589Z,43.29
2018-04-27T05:57:07.112Z,43.16
2018-04-27T05:58:07.532Z,43.04
2018-04-27T05:59:08.004Z,42.93
2018-04-27T06:00:08.476Z,42.81
2018-04-27T06:01:08.950Z,42.71
2018-04-27T06:02:09.471Z,42.59
2018-04-27T06:03:09.892Z,42.48
2018-04-27T06:04:10.364Z,42.40
2018-04-27T06:05:10.834Z,42.33
2018-04-27T06:06:11.309Z,42.31
2018-04-27T06:07:11.779Z,42.23
2018-04-27T06:08:12.252Z,42.17
2018-04-27T06:09:12.730Z,42.15
2018-04-27T06:10:13.206Z,42.12
2018-04-27T06:11:13.669Z,42.10
2018-04-27T06:12:14.144Z,42.07
2018-04-27T06:13:14.618Z,42.03
2018-04-27T06:14:15.091Z,42.02
2018-04-27T06:15:15.563Z,42.04
2018-04-27T06:16:16.040Z,42.01
2018-04-27T06:17:16.511Z,41.95
2018-04-27T06:18:16.984Z,41.92
2018-04-27T06:19:17.461Z,41.92
2018-04-27T06:20:17.937Z,41.90
2018-04-27T06:21:18.409Z,41.90
2018-04-27T06:22:18.884Z,41.87
2018-04-27T06:23:19.354Z,41.84
2018-04-27T06:24:19.833Z,41.84
2018-04-27T06:25:20.305Z,41.81
2018-04-27T06:26:20.779Z,41.78
2018-04-27T06:27:21.254Z,41.76
2018-04-27T06:28:21.728Z,41.78
2018-04-27T06:29:22.201Z,41.81
2018-04-27T06:30:22.680Z,41.84
2018-04-27T06:31:23.151Z,41.92
2018-04-27T06:32:23.677Z,42.03
2018-04-27T06:33:24.103Z,42.14
2018-04-27T06:34:24.601Z,42.30
2018-04-27T06:35:25.052Z,42.46
2018-04-27T06:36:25.529Z,42.63
2018-04-27T06:37:26.002Z,42.84
2018-04-27T06:38:26.477Z,43.04
2018-04-27T06:39:27.023Z,43.28
2018-04-27T06:40:27.426Z,43.49
2018-04-27T06:41:27.906Z,43.66
2018-04-27T06:42:28.425Z,43.84
2018-04-27T06:43:28.847Z,44.06
2018-04-27T06:44:29.321Z,44.31
2018-04-27T06:45:29.797Z,44.53
2018-04-27T06:46:30.269Z,44.78
2018-04-27T06:47:30.742Z,44.96
2018-04-27T06:48:31.218Z,45.18
2018-04-27T06:49:31.689Z,45.38
2018-04-27T06:50:32.161Z,45.63
2018-04-27T06:51:32.651Z,45.92
2018-04-27T06:52:33.105Z,46.25
2018-04-27T06:53:33.578Z,46.61
2018-04-27T06:54:34.050Z,46.96
2018-04-27T06:55:34.523Z,47.23
2018-04-27T06:56:34.997Z,47.44
2018-04-27T06:57:35.469Z,47.65
2018-04-27T06:58:35.937Z,47.82
2018-04-27T06:59:36.413Z,47.96
2018-04-27T07:00:36.880Z,48.06
2018-04-27T07:01:37.351Z,48.17
2018-04-27T07:02:37.875Z,48.25
2018-04-27T07:03:38.294Z,48.33
2018-04-27T07:04:38.766Z,48.40
2018-04-27T07:05:39.237Z,48.38
2018-04-27T07:06:39.710Z,48.22
2018-04-27T07:07:40.179Z,48.01
2018-04-27T07:08:40.652Z,47.85
2018-04-27T07:10:41.595Z,47.49
2018-04-27T07:11:42.067Z,47.38
2018-04-27T07:12:42.589Z,47.26
2018-04-27T07:13:43.012Z,47.15
2018-04-27T07:14:43.482Z,47.05
2018-04-27T07:15:43.954Z,46.97
2018-04-27T07:17:44.898Z,46.69
2018-04-27T07:18:45.370Z,46.58
2018-04-27T07:19:45.843Z,46.45
2018-04-27T07:20:46.315Z,46.34
2018-04-27T07:21:46.792Z,46.23
2018-04-27T07:22:47.263Z,46.08
2018-04-27T07:23:47.734Z,45.95
2018-04-27T07:24:48.208Z,45.80
2018-04-27T07:25:48.684Z,45.67
2018-04-27T07:26:49.155Z,45.57
2018-04-27T07:27:49.677Z,45.49
2018-04-27T07:28:50.102Z,45.40
2018-04-27T07:29:50.578Z,45.32
2018-04-27T07:30:51.051Z,45.27
2018-04-27T07:31:51.525Z,45.19
2018-04-27T07:32:51.998Z,45.11
2018-04-27T07:33:52.477Z,45.02
2018-04-27T07:34:52.949Z,44.95
2018-04-27T07:35:53.423Z,44.90
2018-04-27T07:36:53.896Z,44.85
2018-04-27T07:37:54.373Z,44.82
2018-04-27T07:38:54.848Z,44.82
2018-04-27T07:39:55.329Z,44.86
2018-04-27T07:40:55.800Z,44.90
2018-04-27T07:41:56.273Z,44.98
2018-04-27T07:42:56.755Z,45.10
2018-04-27T07:43:57.225Z,45.25
2018-04-27T07:44:57.708Z,45.43
2018-04-27T07:45:58.176Z,45.63
2018-04-27T07:46:58.652Z,45.83
2018-04-27T07:47:59.176Z,46.04
2018-04-27T07:48:59.602Z,46.23
2018-04-27T07:50:00.079Z,46.41
2018-04-27T07:51:00.552Z,46.56
2018-04-27T07:52:01.027Z,46.69
2018-04-27T07:53:01.502Z,46.85
2018-04-27T07:54:01.976Z,47.04
2018-04-27T07:55:02.450Z,47.23
2018-04-27T07:56:02.925Z,47.39
2018-04-27T07:57:03.400Z,47.54
2018-04-27T07:58:03.923Z,47.71
2018-04-27T07:59:04.352Z,47.86
2018-04-27T08:00:04.826Z,48.01
2018-04-27T08:01:05.296Z,48.17
2018-04-27T08:02:05.854Z,48.28
2018-04-27T08:03:06.239Z,48.43
2018-04-27T08:04:06.715Z,48.56
2018-04-27T08:05:07.189Z,48.73
2018-04-27T08:06:07.657Z,48.95
2018-04-27T08:07:08.164Z,49.13
2018-04-27T08:08:08.756Z,49.31
2018-04-27T08:10:08.736Z,49.83
2018-04-27T08:11:06.569Z,50.05
2018-04-27T08:12:07.040Z,50.21
2018-04-27T08:13:07.513Z,50.30
2018-04-27T08:14:07.985Z,50.30
2018-04-27T08:15:08.454Z,50.30
2018-04-27T08:16:08.928Z,50.31
2018-04-27T08:17:09.398Z,50.28
2018-04-27T08:18:10.210Z,50.19
2018-04-27T08:19:10.341Z,50.08
2018-04-27T08:20:10.813Z,50.00
2018-04-27T08:21:11.285Z,49.84
2018-04-27T08:22:11.757Z,49.67
2018-04-27T08:23:12.228Z,49.47
2018-04-27T08:24:12.750Z,49.28
2018-04-27T08:25:13.176Z,49.09
2018-04-27T08:26:13.644Z,48.90
2018-04-27T08:27:14.119Z,48.74
2018-04-27T08:28:14.588Z,48.51
2018-04-27T08:29:15.403Z,48.29
2018-04-27T08:30:15.544Z,48.05
2018-04-27T08:31:16.210Z,47.82
2018-04-27T08:32:16.479Z,47.62
2018-04-27T08:33:16.952Z,47.44
2018-04-27T08:34:17.425Z,47.32
2018-04-27T08:35:17.898Z,47.18
2018-04-27T08:36:18.372Z,46.98
2018-04-27T08:37:18.847Z,46.82
2018-04-27T08:38:19.320Z,46.60
2018-04-27T08:39:19.795Z,46.41
2018-04-27T08:40:20.271Z,46.22
2018-04-27T08:41:20.744Z,46.09
2018-04-27T08:42:21.221Z,45.94
2018-04-27T08:43:21.763Z,45.84
2018-04-27T08:44:22.218Z,45.73
2018-04-27T08:45:22.645Z,45.64
2018-04-27T08:46:23.120Z,45.52
2018-04-27T08:47:23.597Z,45.47
2018-04-27T08:48:24.073Z,45.44
2018-04-27T08:49:24.547Z,45.41
2018-04-27T08:50:25.055Z,45.39
2018-04-27T08:51:25.498Z,45.46
2018-04-27T08:52:25.976Z,45.59
2018-04-27T08:53:26.452Z,45.71
2018-04-27T08:54:26.925Z,45.87
2018-04-27T08:55:27.404Z,45.94
2018-04-27T08:56:27.877Z,46.06
2018-04-27T08:57:28.353Z,46.16
2018-04-27T08:58:28.830Z,46.29
2018-04-27T08:59:29.303Z,46.43
2018-04-27T09:00:29.782Z,46.57
2018-04-27T09:01:30.256Z,46.70
2018-04-27T09:02:30.730Z,46.83
2018-04-27T09:03:31.206Z,47.03
2018-04-27T09:04:31.682Z,47.14
2018-04-27T09:05:32.157Z,47.29
2018-04-27T09:06:32.633Z,47.45
2018-04-27T09:07:33.105Z,47.58
2018-04-27T09:08:33.582Z,47.72
2018-04-27T09:09:34.056Z,47.83
2018-04-27T09:10:34.531Z,47.93
2018-04-27T09:11:35.006Z,48.03
2018-04-27T09:12:35.476Z,48.13
2018-04-27T09:13:35.950Z,48.25
2018-04-27T09:14:36.474Z,48.37
2018-04-27T09:15:36.898Z,48.49
2018-04-27T09:16:37.371Z,48.59
2018-04-27T09:17:37.844Z,48.73
2018-04-27T09:18:38.316Z,48.83
2018-04-27T09:19:38.842Z,48.96
2018-04-27T09:20:39.266Z,49.12
2018-04-27T09:21:39.773Z,49.32
2018-04-27T09:22:40.208Z,49.49
2018-04-27T09:23:40.686Z,49.69
2018-04-27T09:24:41.153Z,49.84
2018-04-27T09:25:41.625Z,49.94
2018-04-27T09:26:42.098Z,50.13
2018-04-27T09:27:42.569Z,50.19
2018-04-27T09:28:43.042Z,50.20
2018-04-27T09:29:43.518Z,50.18
2018-04-27T09:30:43.990Z,50.07
2018-04-27T09:31:44.457Z,49.92
2018-04-27T09:32:44.931Z,49.83
2018-04-27T09:33:45.404Z,49.65
2018-04-27T09:34:45.928Z,49.49
2018-04-27T09:35:46.346Z,49.35
2018-04-27T09:36:46.819Z,49.07
2018-04-27T09:37:47.293Z,48.84
2018-04-27T09:38:47.764Z,48.68
2018-04-27T09:39:48.242Z,48.59
2018-04-27T09:40:48.711Z,48.44
2018-04-27T09:41:49.185Z,48.28
2018-04-27T09:42:49.657Z,48.08
2018-04-27T09:43:50.135Z,47.76
2018-04-27T09:44:50.606Z,47.56
2018-04-27T09:45:51.080Z,47.37
2018-04-27T09:46:51.554Z,47.12
2018-04-27T09:47:52.030Z,46.92
2018-04-27T09:48:52.503Z,46.69
2018-04-27T09:49:52.978Z,46.42
2018-04-27T09:50:53.453Z,46.24
2018-04-27T09:51:53.928Z,46.07
2018-04-27T09:52:54.405Z,45.93
2018-04-27T09:53:54.877Z,45.81
2018-04-27T09:54:55.354Z,45.75
2018-04-27T09:55:55.830Z,45.71
2018-04-27T09:56:56.305Z,45.76
2018-04-27T09:57:56.782Z,45.87
2018-04-27T09:58:57.259Z,45.94
2018-04-27T09:59:57.784Z,45.99
2018-04-27T10:00:58.208Z,46.04
2018-04-27T10:01:58.685Z,46.13
2018-04-27T10:02:59.163Z,46.30
2018-04-27T10:03:59.638Z,46.47
2018-04-27T10:05:00.115Z,46.59
2018-04-27T10:06:00.590Z,46.73
2018-04-27T10:07:01.065Z,46.93
2018-04-27T10:08:01.543Z,47.10
2018-04-27T10:09:02.017Z,47.18
2018-04-27T10:10:02.495Z,47.33
2018-04-27T10:11:02.972Z,47.46
2018-04-27T10:12:03.446Z,47.57
2018-04-27T10:13:03.922Z,47.71
2018-04-27T10:14:04.397Z,47.88
2018-04-27T10:15:04.886Z,48.02
2018-04-27T10:16:05.346Z,48.20
2018-04-27T10:17:05.822Z,48.37
2018-04-27T10:18:06.296Z,48.53
2018-04-27T10:19:06.770Z,48.72
2018-04-27T10:20:07.296Z,48.88
2018-04-27T10:21:07.719Z,49.05
2018-04-27T10:22:08.196Z,49.20
2018-04-27T10:23:08.668Z,49.36
2018-04-27T10:24:09.141Z,49.51
2018-04-27T10:25:09.668Z,49.66
2018-04-27T10:26:10.091Z,49.68
2018-04-27T10:27:10.582Z,49.76
2018-04-27T10:28:11.037Z,49.87
2018-04-27T10:29:11.511Z,49.99
2018-04-27T10:30:11.983Z,50.08
2018-04-27T10:31:12.457Z,50.16
2018-04-27T10:32:12.929Z,50.23
2018-04-27T10:33:13.405Z,50.38
2018-04-27T10:34:13.876Z,50.48
2018-04-27T10:35:14.346Z,50.60
2018-04-27T10:36:14.818Z,50.70
2018-04-27T10:37:15.293Z,50.78
2018-04-27T10:38:15.765Z,50.85
2018-04-27T10:39:16.236Z,50.94
2018-04-27T10:40:16.708Z,51.03
2018-04-27T10:41:17.184Z,51.06
2018-04-27T10:42:17.652Z,51.04
2018-04-27T10:43:18.124Z,50.96
2018-04-27T10:44:18.598Z,50.82
2018-04-27T10:45:19.068Z,50.69
2018-04-27T10:46:19.539Z,50.53
2018-04-27T10:47:20.012Z,50.38
2018-04-27T10:48:20.483Z,50.20
2018-04-27T10:49:20.956Z,49.99
2018-04-27T10:50:21.540Z,49.77
2018-04-27T10:51:21.901Z,49.51
2018-04-27T10:52:22.374Z,49.23
2018-04-27T10:53:22.849Z,48.98
2018-04-27T10:54:23.321Z,48.73
2018-04-27T10:55:23.793Z,48.45
2018-04-27T10:56:24.267Z,48.21
2018-04-27T10:57:24.741Z,47.92
2018-04-27T10:58:25.221Z,47.72
2018-04-27T10:59:25.689Z,47.50
2018-04-27T11:00:26.164Z,47.27
2018-04-27T11:01:26.711Z,47.03
2018-04-27T11:02:27.114Z,46.79
2018-04-27T11:03:27.682Z,46.54
2018-04-27T11:04:28.064Z,46.30
2018-04-27T11:05:28.541Z,46.09
2018-04-27T11:06:29.016Z,45.92
2018-04-27T11:07:29.491Z,45.77
2018-04-27T11:08:29.966Z,45.66
2018-04-27T11:09:30.443Z,45.56
2018-04-27T11:10:30.919Z,45.50
2018-04-27T11:11:31.393Z,45.54
2018-04-27T11:12:31.871Z,45.56
2018-04-27T11:13:32.360Z,45.62
2018-04-27T11:14:32.822Z,45.70
2018-04-27T11:15:33.299Z,45.75
2018-04-27T11:16:33.778Z,45.88
2018-04-27T11:17:34.251Z,46.02
2018-04-27T11:18:34.725Z,46.17
2018-04-27T11:19:35.204Z,46.30
2018-04-27T11:20:35.678Z,46.46
2018-04-27T11:21:36.155Z,46.55
2018-04-27T11:22:36.630Z,46.63
2018-04-27T11:23:37.105Z,46.75
2018-04-27T11:24:37.584Z,46.80
2018-04-27T11:25:38.107Z,46.89
2018-04-27T11:26:38.532Z,47.00
2018-04-27T11:27:39.006Z,47.12
2018-04-27T11:28:39.530Z,47.22
2018-04-27T11:29:39.957Z,47.38
2018-04-27T11:30:40.430Z,47.49
2018-04-27T11:31:40.906Z,47.63
2018-04-27T11:32:41.381Z,47.75
2018-04-27T11:33:41.856Z,47.84
2018-04-27T11:34:42.327Z,47.99
2018-04-27T11:35:42.801Z,48.11
2018-04-27T11:36:43.276Z,48.21
2018-04-27T11:37:43.749Z,48.26
2018-04-27T11:38:44.224Z,48.33
2018-04-27T11:39:44.699Z,48.45
2018-04-27T11:40:45.229Z,48.54
2018-04-27T11:41:45.642Z,48.63
2018-04-27T11:42:46.114Z,48.72
2018-04-27T11:43:46.588Z,48.80
2018-04-27T11:44:47.060Z,48.92
2018-04-27T11:45:47.536Z,49.07
2018-04-27T11:46:48.008Z,49.26
2018-04-27T11:47:48.572Z,49.46
2018-04-27T11:48:48.951Z,49.62
2018-04-27T11:49:49.422Z,49.75
2018-04-27T11:50:49.894Z,49.87
2018-04-27T11:51:50.368Z,49.95
2018-04-27T11:52:50.836Z,49.95
2018-04-27T11:53:51.310Z,50.06
2018-04-27T11:54:51.783Z,50.17
2018-04-27T11:55:52.254Z,50.14
2018-04-27T11:56:52.727Z,50.12
2018-04-27T11:57:53.204Z,50.02
2018-04-27T11:58:53.671Z,49.91
2018-04-27T11:59:54.140Z,49.74
2018-04-27T12:00:54.665Z,49.57
2018-04-27T12:01:55.087Z,49.34
2018-04-27T12:02:55.562Z,49.08
2018-04-27T12:03:56.033Z,48.87
2018-04-27T12:04:56.507Z,48.58
2018-04-27T12:05:56.978Z,48.29
2018-04-27T12:06:57.453Z,48.10
2018-04-27T12:07:57.926Z,47.84
2018-04-27T12:08:58.400Z,47.59
2018-04-27T12:09:58.925Z,47.40
2018-04-27T12:10:59.346Z,47.18
2018-04-27T12:11:59.818Z,46.99
2018-04-27T12:13:00.296Z,46.82
2018-04-27T12:14:00.769Z,46.70
2018-04-27T12:15:01.249Z,46.55
2018-04-27T12:16:01.768Z,46.38
2018-04-27T12:17:02.195Z,46.25
2018-04-27T12:18:02.669Z,46.08
2018-04-27T12:19:03.146Z,45.85
2018-04-27T12:20:03.620Z,45.77
2018-04-27T12:21:04.095Z,45.79
2018-04-27T12:22:04.569Z,45.84
2018-04-27T12:23:05.046Z,45.92
2018-04-27T12:24:05.520Z,45.97
2018-04-27T12:25:05.998Z,46.06
2018-04-27T12:26:06.474Z,46.23
2018-04-27T12:27:06.951Z,46.40
2018-04-27T12:28:07.425Z,46.52
2018-04-27T12:29:07.902Z,46.64
2018-04-27T12:30:08.401Z,46.80
2018-04-27T12:31:08.914Z,46.96
2018-04-27T12:32:09.330Z,47.12
2018-04-27T12:33:09.810Z,47.25
2018-04-27T12:34:10.281Z,47.44
2018-04-27T12:35:10.757Z,47.66
2018-04-27T12:36:11.288Z,47.88
2018-04-27T12:37:11.708Z,48.04
2018-04-27T12:38:12.183Z,48.21
2018-04-27T12:39:12.661Z,48.37
2018-04-27T12:40:13.134Z,48.50
2018-04-27T12:41:13.660Z,48.63
2018-04-27T12:42:14.084Z,48.78
2018-04-27T12:43:14.559Z,48.86
2018-04-27T12:44:15.035Z,48.96
2018-04-27T12:45:15.509Z,49.09
2018-04-27T12:46:15.986Z,49.26
2018-04-27T12:47:16.456Z,49.41
2018-04-27T12:48:16.929Z,49.55
2018-04-27T12:49:17.403Z,49.67
2018-04-27T12:50:17.878Z,49.82
2018-04-27T12:51:18.355Z,49.91
2018-04-27T12:52:18.903Z,49.99
2018-04-27T12:53:19.300Z,50.06
2018-04-27T12:54:19.770Z,50.13
2018-04-27T12:55:20.248Z,50.20
2018-04-27T12:56:20.767Z,50.26
2018-04-27T12:57:21.196Z,50.31
2018-04-27T12:58:21.662Z,50.44
2018-04-27T12:59:22.134Z,50.67
2018-04-27T13:00:22.607Z,50.95
2018-04-27T13:01:23.080Z,51.24
2018-04-27T13:02:23.553Z,51.48